Latest Weather Observations for Cooma Airport

IDN60901

Issued at 4:35 am EDT Saturday 22 November 2014 (issued every 10 minutes, with the page automatically refreshed every 10 minutes)

About weather observations | Map of Canberra area stations | Latest observations for Canberra area | Other Formats
Station Details ID: 070217 Name: COOMA AIRPORT AWS Lat: -36.29 Lon: 148.97 Height: 930.0 m
Data from the previous 72 hours. | See also: Recent months for locations in Aust Capital Territory
Date/Time
EDT
Tmp

°C
App
Tmp
°C
Dew
Point
°C
Rel
Hum
%
Delta-T

°C
Wind Press
QNH
hPa
Press
MSL
hPa
Rain
since
9 am
mm
Dir
 
Spd
km/h
Gust
km/h
Spd
kts
Gust
kts
22/04:30am 12.7 11.4 12.5 99 0.1 ENE 11 13 6 7 1014.9 1012.5 0.0
22/04:00am 12.9 12.5 12.3 96 0.3 NE 6 7 3 4 1015.0 1012.6 0.0
22/03:30am 12.9 13.5 11.8 93 0.6 CALM 0 0 0 0 1014.8 1012.4 0.0
22/03:00am 12.7 13.1 11.4 92 0.7 CALM 0 0 0 0 1014.9 1012.5 0.0
22/02:30am 12.9 13.5 11.8 93 0.6 CALM 0 0 0 0 1015.2 1012.8 0.0
22/02:00am 13.1 13.7 12.0 93 0.6 CALM 0 6 0 3 1015.6 1013.2 0.0
22/01:30am 13.0 12.5 11.9 93 0.6 S 6 9 3 5 1015.7 1013.3 0.0
22/01:00am 13.0 11.4 11.7 92 0.7 SSW 11 11 6 6 1015.8 1013.4 0.0
22/12:30am 13.0 11.4 11.7 92 0.7 SW 11 17 6 9 1016.2 1013.8 0.0
22/12:00am 12.9 11.1 12.0 94 0.5 SW 13 17 7 9 1016.3 1013.9 0.0
 
Date/Time
EDT
Tmp

°C
App
Tmp
°C
Dew
Point
°C
Rel
Hum
%
Delta-T

°C
Wind Press
QNH
hPa
Press
MSL
hPa
Rain
since
9 am
mm
Dir
 
Spd
km/h
Gust
km/h
Spd
kts
Gust
kts
21/11:30pm 12.8 11.1 12.3 97 0.3 SW 13 17 7 9 1016.3 1013.9 0.0
21/11:00pm 12.2 9.6 12.0 99 0.1 SW 17 20 9 11 1016.3 1013.9 0.0
21/10:53pm 12.1 9.5 11.9 99 0.1 SSW 17 20 9 11 1016.2 1013.8 0.0
21/10:30pm 12.0 8.9 11.7 98 0.2 SW 19 22 10 12 1016.1 1013.7 0.0
21/10:00pm 12.7 9.5 11.9 95 0.4 SW 20 24 11 13 1015.7 1013.3 0.0
21/09:30pm 13.9 10.8 12.1 89 1.0 SW 20 24 11 13 1015.1 1012.7 0.0
21/09:00pm 15.2 12.9 10.4 73 2.6 W 13 17 7 9 1014.7 1012.3 0.0
21/08:30pm 18.2 14.7 7.0 48 5.9 W 15 24 8 13 1013.8 1011.4 0.0
21/08:00pm 19.6 16.4 6.7 43 6.8 WNW 13 19 7 10 1013.4 1010.9 0.0
21/07:30pm 21.2 18.8 7.1 40 7.6 NNW 9 11 5 6 1012.9 1010.5 0.0
21/07:00pm 23.0 20.9 6.7 35 8.8 WNW 7 15 4 8 1012.4 1009.9 0.0
21/06:30pm 23.7 19.7 6.5 33 9.3 WNW 17 26 9 14 1011.8 1009.4 0.0
21/06:00pm 23.3 17.8 6.1 33 9.2 W 24 35 13 19 1011.4 1008.9 0.0
21/05:30pm 24.5 19.2 6.7 32 9.7 W 24 39 13 21 1011.1 1008.6 0.0
21/05:00pm 24.9 20.1 7.5 33 9.6 WNW 22 35 12 19 1010.9 1008.4 0.0
21/04:30pm 24.8 18.8 7.0 32 9.7 WNW 28 41 15 22 1010.7 1008.3 0.0
21/04:00pm 25.4 19.3 6.6 30 10.2 WNW 28 44 15 24 1010.7 1008.3 0.0
21/03:51pm 25.1 18.7 5.3 28 10.5 WNW 28 46 15 25 1010.6 1008.1 0.0
21/03:30pm 25.1 19.3 6.3 30 10.2 WNW 26 39 14 21 1010.7 1008.3 0.0
21/03:00pm 25.5 19.0 6.7 30 10.3 W 30 43 16 23 1010.6 1008.1 0.0
21/02:30pm 24.5 18.9 7.2 33 9.5 WNW 26 41 14 22 1010.6 1008.1 0.0
21/02:00pm 25.0 19.3 8.5 35 9.3 WNW 28 43 15 23 1010.7 1008.3 0.0
21/01:40pm 24.6 17.8 7.7 34 9.3 WNW 33 52 18 28 1010.9 1008.4 0.0
21/01:30pm 25.5 19.5 8.5 34 9.6 W 30 41 16 22 1011.0 1008.5 0.0
21/01:12pm 24.5 18.7 8.0 35 9.2 W 28 46 15 25 1011.0 1008.5 0.0
21/01:00pm 24.4 18.7 8.4 36 8.9 W 28 43 15 23 1011.2 1008.7 0.0
21/12:35pm 24.3 17.9 8.7 37 8.8 W 32 50 17 27 1011.4 1008.9 0.0
21/12:30pm 23.8 17.0 7.8 36 8.8 W 33 50 18 27 1011.4 1008.9 0.0
21/12:26pm 23.6 17.7 7.3 35 8.9 W 28 46 15 25 1011.4 1008.9 0.0
21/12:00pm 23.7 17.8 10.4 43 7.7 W 32 39 17 21 1011.1 1008.6 0.0
21/11:30am 21.7 16.9 10.2 48 6.5 W 26 35 14 19 1011.0 1008.5 0.0
21/11:00am 21.9 17.0 9.8 46 6.8 WNW 26 39 14 21 1011.0 1008.5 0.0
21/10:30am 21.8 15.6 10.0 47 6.7 W 33 44 18 24 1011.2 1008.7 0.0
21/10:00am 22.2 17.3 10.0 46 6.9 WNW 26 39 14 21 1011.1 1008.6 0.0
21/09:30am 20.8 14.6 9.4 48 6.4 WNW 32 44 17 24 1011.1 1008.6 0.0
21/09:00am 21.0 15.2 9.3 47 6.5 W 30 43 16 23 1011.0 1008.5 0.0
21/08:30am 19.8 15.3 8.5 48 6.2 W 22 33 12 18 1010.6 1008.1 0.0
21/08:00am 19.5 15.9 8.5 49 6.0 W 17 26 9 14 1010.3 1007.8 0.0
21/07:30am 18.8 16.6 7.9 49 5.9 NE 9 15 5 8 1009.9 1007.4 0.0
21/07:00am 15.2 12.4 8.7 65 3.5 ENE 13 17 7 9 1009.4 1006.9 0.0
21/06:30am 11.8 9.8 8.5 80 1.7 NE 9 11 5 6 1009.3 1006.8 0.0
21/06:00am 9.8 7.2 7.7 87 1.1 NNE 11 13 6 7 1009.1 1006.6 0.0
21/05:30am 9.8 6.8 7.7 87 1.1 N 13 15 7 8 1009.1 1006.6 0.0
21/05:00am 10.5 8.2 7.6 82 1.5 NE 9 11 5 6 1009.1 1006.6 0.0
21/04:30am 9.4 7.5 6.7 83 1.3 N 6 9 3 5 1009.0 1006.5 0.0
21/04:00am 10.2 8.8 7.3 82 1.5 NNW 4 9 2 5 1009.3 1006.8 0.0
21/03:30am 11.5 9.0 8.0 79 1.8 N 11 17 6 9 1009.3 1006.8 0.0
21/03:00am 13.3 13.1 9.0 75 2.3 CALM 0 0 0 0 1010.2 1007.7 0.0
21/02:30am 13.9 11.1 8.7 71 2.8 WSW 13 17 7 9 1010.5 1008.0 0.0
21/02:00am 14.7 11.6 8.9 68 3.1 SSW 15 20 8 11 1010.6 1008.1 0.0
21/01:30am 16.3 12.0 7.8 57 4.5 SW 20 26 11 14 1011.6 1009.1 0.0
21/01:00am 17.1 12.7 7.2 52 5.2 WSW 20 26 11 14 1011.4 1008.9 0.0
21/12:30am 16.1 13.7 7.1 55 4.7 W 9 20 5 11 1011.2 1008.7 0.0
21/12:00am 16.0 12.4 6.7 54 4.8 WSW 15 17 8 9 1010.7 1008.3 0.0
 
Date/Time
EDT
Tmp

°C
App
Tmp
°C
Dew
Point
°C
Rel
Hum
%
Delta-T

°C
Wind Press
QNH
hPa
Press
MSL
hPa
Rain
since
9 am
mm
Dir
 
Spd
km/h
Gust
km/h
Spd
kts
Gust
kts
20/11:30pm 17.3 14.7 5.9 47 5.8 W 9 22 5 12 1010.7 1008.3 0.0
20/11:00pm 19.7 16.4 4.6 37 7.7 NW 11 15 6 8 1010.9 1008.4 0.0
20/10:30pm 20.7 17.1 5.1 36 8.0 NW 13 17 7 9 1011.1 1008.6 0.0
20/10:00pm 17.4 17.1 8.8 57 4.7 CALM 0 0 0 0 1011.1 1008.6 0.0
20/09:30pm 17.9 16.7 7.9 52 5.3 N 4 7 2 4 1011.1 1008.6 0.0
20/09:00pm 17.5 15.9 8.1 54 5.0 N 6 7 3 4 1011.0 1008.5 0.0
20/08:30pm 20.0 17.9 6.7 42 7.0 NNW 7 9 4 5 1011.1 1008.6 0.0
20/08:00pm 21.9 18.7 5.3 34 8.7 NNW 11 13 6 7 1011.0 1008.5 0.0
20/07:30pm 22.2 20.3 6.8 37 8.3 N 6 11 3 6 1011.0 1008.5 0.0
20/07:00pm 23.2 21.1 5.6 32 9.3 NNE 6 11 3 6 1010.9 1008.4 0.0
20/06:30pm 23.8 21.0 5.2 30 9.8 N 9 17 5 9 1010.7 1008.3 0.0
20/06:00pm 23.9 21.4 4.8 29 10.0 NNW 7 11 4 6 1010.5 1008.0 0.0
20/05:30pm 24.0 21.3 5.4 30 9.8 N 9 17 5 9 1010.6 1008.1 0.0
20/05:00pm 24.5 20.8 4.3 27 10.5 NW 13 24 7 13 1010.9 1008.4 0.0
20/04:30pm 25.3 19.3 3.3 24 11.3 WNW 24 35 13 19 1010.7 1008.3 0.0
20/04:00pm 26.3 19.4 2.3 21 12.2 WNW 28 43 15 23 1011.1 1008.6 0.0
20/03:30pm 26.2 19.5 1.5 20 12.3 NW 26 39 14 21 1011.2 1008.7 0.0
20/03:00pm 26.9 21.1 2.1 20 12.6 NW 22 37 12 20 1011.4 1008.9 0.0
20/02:30pm 27.0 19.4 0.7 18 13.0 W 30 41 16 22 1012.1 1009.6 0.0
20/02:00pm 26.8 19.9 2.7 21 12.4 W 28 39 15 21 1012.3 1009.8 0.0
20/01:30pm 26.3 18.6 0.1 18 12.8 W 30 43 16 23 1012.7 1010.3 0.0
20/01:00pm 26.1 18.9 0.7 19 12.5 WNW 28 39 15 21 1013.0 1010.6 0.0
20/12:30pm 26.0 18.7 -0.1 18 12.7 W 28 41 15 22 1013.2 1010.7 0.0
20/12:08pm 26.0 18.0 0.6 19 12.5 WNW 32 50 17 27 1013.5 1011.0 0.0
20/12:00pm 25.4 17.1 -0.6 18 12.5 WNW 33 48 18 26 1013.5 1011.0 0.0
20/11:30am 25.1 18.5 1.9 22 11.6 NW 26 37 14 20 1013.7 1011.3 0.0
20/11:00am 24.0 17.4 2.2 24 10.9 WNW 26 35 14 19 1013.8 1011.4 0.0
20/10:30am 24.2 16.9 -0.2 20 11.7 WNW 28 39 15 21 1014.4 1011.9 0.0
20/10:00am 23.2 18.3 2.1 25 10.5 WNW 17 33 9 18 1014.8 1012.4 0.0
20/09:30am 22.0 16.7 3.2 29 9.4 NNW 20 26 11 14 1015.1 1012.7 0.0
20/09:00am 21.4 16.2 2.6 29 9.3 NW 19 28 10 15 1015.6 1013.2 0.0
20/08:30am 20.3 14.5 2.2 30 8.8 NNW 22 33 12 18 1015.8 1013.4 0.0
20/08:17am 19.5 14.2 2.8 33 8.2 NNW 20 26 11 14 1015.9 1013.5 0.0
20/08:00am 14.4 11.5 6.5 59 4.0 NNE 11 15 6 8 1015.9 1013.5 0.0
20/07:30am 10.3 6.9 5.7 73 2.2 NE 13 17 7 9 1016.0 1013.6 0.0
20/07:00am 9.4 5.5 5.2 75 2.0 NNE 15 19 8 10 1015.8 1013.4 0.0
20/06:30am 9.6 5.0 5.4 75 2.0 NE 19 24 10 13 1015.6 1013.2 0.0
20/06:00am 6.9 3.4 3.3 78 1.6 NNE 11 17 6 9 1015.5 1013.0 0.0
20/05:30am 5.1 1.8 2.5 83 1.1 NE 9 13 5 7 1015.5 1013.0 0.0
20/05:00am 4.6 0.1 2.0 83 1.1 NNE 15 17 8 9 1015.1 1012.7 0.0
20/04:30am 5.3 2.0 2.5 82 1.2 NNE 9 11 5 6 1015.3 1012.9 0.0
20/04:00am 6.4 3.2 3.0 79 1.5 N 9 11 5 6 1015.6 1013.2 0.0
20/03:30am 4.9 1.9 1.9 81 1.3 N 7 11 4 6 1015.7 1013.3 0.0
20/03:00am 8.0 4.9 3.5 73 2.0 N 9 11 5 6 1015.9 1013.5 0.0
20/02:30am 6.3 3.2 3.8 84 1.1 NE 9 13 5 7 1015.9 1013.5 0.0
20/02:00am 6.9 4.4 3.9 81 1.4 N 6 9 3 5 1016.0 1013.6 0.0
20/01:30am 6.3 3.2 3.5 82 1.3 NNE 9 11 5 6 1016.2 1013.8 0.0
20/01:00am 6.0 3.7 2.8 80 1.4 NNE 4 7 2 4 1016.9 1014.5 0.0
20/12:30am 7.9 6.6 4.1 77 1.7 CALM 0 0 0 0 1017.2 1014.8 0.0
20/12:00am 6.9 5.1 3.5 79 1.5 NNW 2 7 1 4 1017.3 1014.9 0.0
 
Date/Time
EDT
Tmp

°C
App
Tmp
°C
Dew
Point
°C
Rel
Hum
%
Delta-T

°C
Wind Press
QNH
hPa
Press
MSL
hPa
Rain
since
9 am
mm
Dir
 
Spd
km/h
Gust
km/h
Spd
kts
Gust
kts
19/11:30pm 7.5 6.2 3.9 78 1.6 CALM 0 0 0 0 1017.4 1015.1 0.0
19/11:00pm 8.2 6.9 3.9 74 2.0 CALM 0 0 0 0 1017.4 1015.1 0.0
19/10:30pm 9.5 8.2 4.3 70 2.4 CALM 0 0 0 0 1017.5 1015.2 0.0
19/10:00pm 11.1 9.9 4.6 64 3.1 CALM 0 0 0 0 1017.8 1015.4 0.0
19/09:30pm 12.1 10.8 4.1 58 3.8 CALM 0 0 0 0 1017.9 1015.5 0.0
19/09:00pm 13.3 10.6 3.9 53 4.5 NNW 7 9 4 5 1017.4 1015.1 0.0
19/08:30pm 14.7 12.0 3.5 47 5.4 NNW 7 11 4 6 1017.3 1014.9 0.0
19/08:00pm 17.4 14.1 2.2 36 7.2 NW 9 15 5 8 1017.0 1014.6 0.0
19/07:30pm 20.2 15.6 1.6 29 8.9 NW 15 20 8 11 1017.0 1014.6 0.0
19/07:00pm 21.3 15.9 1.0 26 9.7 NW 19 26 10 14 1016.7 1014.3 0.0
19/06:30pm 22.0 16.6 1.1 25 10.1 NW 19 26 10 14 1016.4 1014.1 0.0
19/06:00pm 22.6 16.9 0.4 23 10.6 WNW 20 28 11 15 1016.4 1014.1 0.0
19/05:30pm 23.1 17.5 0.2 22 10.9 WNW 19 32 10 17 1016.4 1014.1 0.0
19/05:00pm 23.5 16.9 -0.7 20 11.4 WNW 24 35 13 19 1016.7 1014.3 0.0
19/04:30pm 23.6 18.3 -0.6 20 11.4 WNW 17 28 9 15 1016.8 1014.4 0.0
19/04:00pm 23.6 17.1 -2.1 18 11.8 W 22 30 12 16 1017.0 1014.6 0.0
19/03:30pm 23.5 17.5 -2.9 17 11.9 WNW 19 30 10 16 1017.3 1014.9 0.0
19/03:00pm 23.8 16.9 -2.7 17 12.0 NNW 24 37 13 20 1017.6 1015.3 0.0
19/02:30pm 24.1 16.7 -0.9 19 11.8 NNW 28 41 15 22 1017.8 1015.4 0.0
19/02:00pm 23.5 16.6 -2.9 17 11.9 NW 24 35 13 19 1018.0 1015.6 0.0
19/01:30pm 23.1 16.8 -1.1 20 11.3 NNW 22 39 12 21 1018.2 1015.8 0.0
19/01:00pm 23.1 16.9 -3.3 17 11.8 NNW 20 28 11 15 1018.6 1016.3 0.0
19/12:30pm 22.2 17.2 1.3 25 10.1 NNE 17 26 9 14 1019.0 1016.6 0.0
19/12:00pm 21.3 17.8 7.2 40 7.6 NE 15 20 8 11 1019.4 1017.1 0.0
19/11:30am 20.9 17.7 9.8 49 6.2 NE 17 26 9 14 1020.0 1017.7 0.0
19/11:00am 19.4 16.0 9.0 51 5.7 NNE 17 26 9 14 1020.4 1018.1 0.0
19/10:30am 18.4 14.3 8.7 53 5.3 NNE 20 26 11 14 1020.7 1018.4 0.0
19/10:00am 16.8 12.9 8.8 59 4.3 NE 19 28 10 15 1020.8 1018.5 0.0
19/09:30am 15.9 12.5 9.3 65 3.6 NE 17 24 9 13 1021.3 1019.0 0.0
19/09:00am 14.8 11.7 10.2 74 2.5 NNE 17 24 9 13 1021.5 1019.2 0.0
19/08:30am 13.5 9.4 10.1 80 1.8 NNE 22 30 12 16 1021.5 1019.2 0.0
19/08:24am 13.0 9.0 9.1 77 2.1 NNE 20 26 11 14 1021.5 1019.2 0.0
19/08:00am 11.7 8.1 9.8 88 1.0 N 19 24 10 13 1021.4 1019.1 0.0
19/07:30am 11.2 8.3 11.0 99 0.1 NE 17 20 9 11 1021.4 1019.1 0.0
19/07:00am 10.3 7.5 10.1 99 0.1 NE 15 20 8 11 1021.4 1019.1 0.0
19/06:30am 9.9 6.7 9.8 99 0.1 NNE 17 20 9 11 1021.3 1019.0 0.0
19/06:00am 9.4 6.8 9.3 99 0.1 N 13 19 7 10 1021.1 1018.8 0.0
19/05:30am 8.8 6.8 8.8 100 0.0 NE 9 13 5 7 1021.0 1018.7 0.0
19/05:00am 8.4 5.9 8.4 100 0.0 NNE 11 13 6 7 1021.0 1018.7 0.0
19/04:53am 8.3 5.8 8.3 100 0.0 NE 11 13 6 7 1021.0 1018.7 0.0

Latest Capital City Observations: Canberra | Sydney | Melbourne | Brisbane | Adelaide | Perth | Hobart | Darwin

Other Formats:

Comma delimited format used in spreadsheet applications
http://www.bom.gov.au/fwo/IDN60903/IDN60903.94921.axf

JavaScript Object Notation format (JSON) in row-major order
http://www.bom.gov.au/fwo/IDN60903/IDN60903.94921.json